createdAt,value
2022-10-19T00:01:09.906Z,87.13
2022-10-19T00:03:40.577Z,87.26
2022-10-19T00:06:14.623Z,87.35
2022-10-19T00:08:42.593Z,87.18
2022-10-19T00:11:11.214Z,86.94
2022-10-19T00:13:39.427Z,87.07
2022-10-19T00:16:12.443Z,87.30
2022-10-19T00:18:43.395Z,86.91
2022-10-19T00:21:13.246Z,86.85
2022-10-19T00:23:41.167Z,87.29
2022-10-19T00:26:09.310Z,87.00
2022-10-19T00:28:37.579Z,86.93
2022-10-19T00:31:06.800Z,87.25
2022-10-19T00:33:35.284Z,87.07
2022-10-19T00:36:06.111Z,87.19
2022-10-19T00:38:34.028Z,87.44
2022-10-19T00:41:03.837Z,87.33
2022-10-19T00:43:32.231Z,87.21
2022-10-19T00:46:00.131Z,87.12
2022-10-19T00:48:31.491Z,87.50
2022-10-19T00:51:01.082Z,87.34
2022-10-19T00:53:31.867Z,87.25
2022-10-19T00:56:04.183Z,87.12
2022-10-19T00:58:32.554Z,87.42
2022-10-19T01:01:04.439Z,87.29
2022-10-19T01:03:33.231Z,87.77
2022-10-19T01:06:01.796Z,87.05
2022-10-19T01:08:31.499Z,87.07
2022-10-19T01:11:14.473Z,87.17
2022-10-19T01:13:52.140Z,87.71
2022-10-19T01:16:28.881Z,87.62
2022-10-19T01:19:02.048Z,87.55
2022-10-19T01:21:38.225Z,87.17
2022-10-19T01:24:47.604Z,87.42
2022-10-19T01:27:50.973Z,87.58
2022-10-19T01:30:27.054Z,87.25
2022-10-19T01:33:08.071Z,87.40
2022-10-19T01:35:42.693Z,87.37
2022-10-19T01:38:22.916Z,87.53
2022-10-19T01:40:57.204Z,87.40
2022-10-19T01:43:34.681Z,87.71
2022-10-19T01:46:10.675Z,87.37
2022-10-19T01:48:41.784Z,87.63
2022-10-19T01:51:14.858Z,87.26
2022-10-19T01:53:47.795Z,87.47
2022-10-19T01:56:18.937Z,87.77
2022-10-19T01:58:48.205Z,87.31
2022-10-19T02:01:21.032Z,87.76
2022-10-19T02:03:50.794Z,87.82
2022-10-19T02:06:19.824Z,87.73
2022-10-19T02:08:49.613Z,87.55
2022-10-19T02:11:18.810Z,87.56
2022-10-19T02:13:50.352Z,87.70
2022-10-19T02:16:22.961Z,87.82
2022-10-19T02:18:53.162Z,87.49
2022-10-19T02:21:21.404Z,87.51
2022-10-19T02:23:51.813Z,87.74
2022-10-19T02:26:23.026Z,87.42
2022-10-19T02:28:51.614Z,87.41
2022-10-19T02:31:20.831Z,87.47
2022-10-19T02:33:48.955Z,87.68
2022-10-19T02:36:16.819Z,87.77
2022-10-19T02:38:44.932Z,87.54
2022-10-19T02:41:17.062Z,87.97
2022-10-19T02:43:49.579Z,87.71
2022-10-19T02:46:19.853Z,87.93
2022-10-19T02:48:52.147Z,87.97
2022-10-19T02:51:31.680Z,88.01
2022-10-19T02:54:02.612Z,87.85
2022-10-19T02:56:33.318Z,87.93
2022-10-19T02:59:01.493Z,87.78
2022-10-19T03:01:29.308Z,88.03
2022-10-19T03:03:58.477Z,87.99
2022-10-19T03:06:26.359Z,87.65
2022-10-19T03:08:54.158Z,88.06
2022-10-19T03:11:22.298Z,87.78
2022-10-19T03:13:50.071Z,88.07
2022-10-19T03:16:17.907Z,88.00
2022-10-19T03:18:45.776Z,87.64
2022-10-19T03:21:15.046Z,87.73
2022-10-19T03:23:43.221Z,88.05
2022-10-19T03:26:15.405Z,87.76
2022-10-19T03:28:43.672Z,88.15
2022-10-19T03:31:11.473Z,88.21
2022-10-19T03:33:39.498Z,87.99
2022-10-19T03:36:22.559Z,88.24
2022-10-19T03:38:54.502Z,88.14
2022-10-19T03:41:23.306Z,87.82
2022-10-19T03:43:51.438Z,88.09
2022-10-19T03:46:19.583Z,87.70
2022-10-19T03:48:47.961Z,88.04
2022-10-19T03:51:18.954Z,88.03
2022-10-19T03:53:47.568Z,88.36
2022-10-19T03:56:17.349Z,87.83
2022-10-19T03:58:47.421Z,88.18
2022-10-19T04:01:17.861Z,88.24
2022-10-19T04:03:46.107Z,88.27
2022-10-19T04:06:18.332Z,88.42
2022-10-19T04:08:51.315Z,88.08
2022-10-19T04:11:23.132Z,88.26
2022-10-19T04:13:52.107Z,88.54
2022-10-19T04:16:20.874Z,87.94
2022-10-19T04:18:49.123Z,87.99
2022-10-19T04:21:25.046Z,88.61
2022-10-19T04:23:58.210Z,88.18
2022-10-19T04:26:26.171Z,88.42
2022-10-19T04:28:54.053Z,88.13
2022-10-19T04:31:22.073Z,88.01
2022-10-19T04:33:49.908Z,88.09
2022-10-19T04:36:17.888Z,88.48
2022-10-19T04:38:45.880Z,87.96
2022-10-19T04:41:17.846Z,88.14
2022-10-19T04:43:46.257Z,88.49
2022-10-19T04:46:16.157Z,88.60
2022-10-19T04:48:44.721Z,88.34
2022-10-19T04:51:13.395Z,87.85
2022-10-19T04:53:42.697Z,87.88
2022-10-19T04:56:17.388Z,88.52
2022-10-19T04:58:46.029Z,88.02
2022-10-19T05:01:15.410Z,88.27
2022-10-19T05:03:43.720Z,88.41
2022-10-19T05:06:12.656Z,88.39
2022-10-19T05:08:40.964Z,88.21
2022-10-19T05:11:10.724Z,88.70
2022-10-19T05:13:40.151Z,88.86
2022-10-19T05:16:11.572Z,88.31
2022-10-19T05:18:39.716Z,88.23
2022-10-19T05:21:10.291Z,88.33
2022-10-19T05:23:38.726Z,88.50
2022-10-19T05:26:08.327Z,88.92
2022-10-19T05:28:37.618Z,88.78
2022-10-19T05:31:12.569Z,88.32
2022-10-19T05:33:41.223Z,88.86
2022-10-19T05:36:14.628Z,88.24
2022-10-19T05:38:43.064Z,88.17
2022-10-19T05:41:11.603Z,88.63
2022-10-19T05:43:40.672Z,88.71
2022-10-19T05:46:11.521Z,88.82
2022-10-19T05:48:39.609Z,88.23
2022-10-19T05:51:09.410Z,88.28
2022-10-19T05:56:14.693Z,88.31
2022-10-19T05:58:42.582Z,88.42
2022-10-19T06:01:12.050Z,89.05
2022-10-19T06:03:40.043Z,88.34
2022-10-19T06:06:09.733Z,88.92
2022-10-19T06:08:38.728Z,89.05
2022-10-19T06:11:07.996Z,88.99
2022-10-19T06:13:36.211Z,88.52
2022-10-19T06:16:04.748Z,88.88
2022-10-19T06:18:34.480Z,88.76
2022-10-19T06:21:04.602Z,88.46
2022-10-19T06:23:32.799Z,88.57
2022-10-19T06:26:02.808Z,88.44
2022-10-19T06:28:30.751Z,88.90
2022-10-19T06:30:59.200Z,88.73
2022-10-19T06:33:27.678Z,88.82
2022-10-19T06:35:57.032Z,88.56
2022-10-19T06:38:24.908Z,88.69
2022-10-19T06:40:52.773Z,88.48
2022-10-19T06:43:20.743Z,88.97
2022-10-19T06:45:48.609Z,89.02
2022-10-19T06:48:16.614Z,88.96
2022-10-19T06:50:44.464Z,88.71
2022-10-19T06:53:13.780Z,88.83
2022-10-19T06:55:41.522Z,89.12
2022-10-19T06:58:09.365Z,88.68
2022-10-19T07:00:37.280Z,88.66
2022-10-19T07:03:05.300Z,88.89
2022-10-19T07:05:33.158Z,88.55
2022-10-19T07:08:01.076Z,89.03
2022-10-19T07:10:30.327Z,88.70
2022-10-19T07:12:58.192Z,88.62
2022-10-19T07:15:26.106Z,88.59
2022-10-19T07:17:54.254Z,89.08
2022-10-19T07:20:22.113Z,88.92
2022-10-19T07:22:49.905Z,88.74
2022-10-19T07:25:18.051Z,88.64
2022-10-19T07:27:47.287Z,89.01
2022-10-19T07:30:15.061Z,89.13
2022-10-19T07:32:46.757Z,88.75
2022-10-19T07:35:15.518Z,89.13
2022-10-19T07:37:43.524Z,88.96
2022-10-19T07:40:12.924Z,88.93
2022-10-19T07:42:40.780Z,88.82
2022-10-19T07:45:10.938Z,88.90
2022-10-19T07:47:38.770Z,88.96
2022-10-19T07:50:07.064Z,89.15
2022-10-19T07:52:36.886Z,88.92
2022-10-19T07:55:05.819Z,88.83
2022-10-19T07:57:33.638Z,88.84
2022-10-19T08:00:01.548Z,88.95
2022-10-19T08:02:39.594Z,88.91
2022-10-19T08:05:18.853Z,88.96
2022-10-19T08:07:47.227Z,89.10
2022-10-19T08:10:15.064Z,89.01
2022-10-19T08:12:43.213Z,89.13
2022-10-19T08:15:11.518Z,88.92
2022-10-19T08:17:40.838Z,89.17
2022-10-19T08:20:09.519Z,89.06
2022-10-19T08:22:37.598Z,89.20
2022-10-19T08:25:06.205Z,89.00
2022-10-19T08:27:34.164Z,89.11
2022-10-19T08:30:01.942Z,89.20
2022-10-19T08:32:29.852Z,89.22
2022-10-19T08:34:59.483Z,89.18
2022-10-19T08:37:40.789Z,88.94
2022-10-19T08:40:21.773Z,89.27
2022-10-19T08:43:22.677Z,89.29
2022-10-19T08:45:58.483Z,89.32
2022-10-19T08:48:29.899Z,88.83
2022-10-19T08:51:02.332Z,89.27
2022-10-19T08:53:41.572Z,89.08
2022-10-19T08:56:49.233Z,89.25
2022-10-19T08:59:23.509Z,89.12
2022-10-19T09:01:56.031Z,89.13
2022-10-19T09:04:29.696Z,88.97
2022-10-19T09:07:14.934Z,89.34
2022-10-19T09:12:31.517Z,89.30
2022-10-19T09:15:03.597Z,89.49
2022-10-19T09:17:33.332Z,89.37
2022-10-19T09:20:14.413Z,89.09
2022-10-19T09:22:45.138Z,89.10
2022-10-19T09:25:19.387Z,89.09
2022-10-19T09:27:50.405Z,89.44
2022-10-19T09:30:21.078Z,89.46
2022-10-19T09:32:51.069Z,88.92
2022-10-19T09:35:26.196Z,89.13
2022-10-19T09:37:56.835Z,89.44
2022-10-19T09:40:27.166Z,89.40
2022-10-19T09:42:58.537Z,89.39
2022-10-19T09:45:37.401Z,89.09
2022-10-19T09:48:17.913Z,88.98
2022-10-19T09:50:46.829Z,89.05
2022-10-19T09:53:21.785Z,89.06
2022-10-19T09:55:54.851Z,89.45
2022-10-19T09:58:29.181Z,89.38
2022-10-19T10:01:00.774Z,89.52
2022-10-19T10:03:31.400Z,89.38
2022-10-19T10:06:03.443Z,89.45
2022-10-19T10:08:36.776Z,89.16
2022-10-19T10:11:11.691Z,89.11
2022-10-19T10:13:42.025Z,89.30
2022-10-19T10:16:16.246Z,89.07
2022-10-19T10:21:48.707Z,89.38
2022-10-19T10:24:20.783Z,89.14
2022-10-19T10:26:52.170Z,89.29
2022-10-19T10:29:22.270Z,88.95
2022-10-19T10:31:52.848Z,89.40
2022-10-19T10:34:45.967Z,89.22
2022-10-19T10:37:22.961Z,89.31
2022-10-19T10:39:56.604Z,89.05
2022-10-19T10:42:31.456Z,89.36
2022-10-19T10:45:00.708Z,89.43
2022-10-19T10:47:30.695Z,88.90
2022-10-19T10:50:01.416Z,88.94
2022-10-19T10:52:31.917Z,89.26
2022-10-19T10:55:03.898Z,89.39
2022-10-19T10:57:35.124Z,88.81
2022-10-19T11:00:11.308Z,89.25
2022-10-19T11:02:48.751Z,88.94
2022-10-19T11:05:20.820Z,88.75
2022-10-19T11:07:53.021Z,89.15
2022-10-19T11:10:31.300Z,88.82
2022-10-19T11:13:06.705Z,88.89
2022-10-19T11:15:41.429Z,89.13
2022-10-19T11:18:18.822Z,88.78
2022-10-19T11:20:53.949Z,89.10
2022-10-19T11:23:36.323Z,88.92
2022-10-19T11:26:13.990Z,88.73
2022-10-19T11:28:56.947Z,88.49
2022-10-19T11:31:39.223Z,88.83
2022-10-19T11:34:23.696Z,88.69
2022-10-19T11:37:01.196Z,88.84
2022-10-19T11:39:43.755Z,88.85
2022-10-19T11:42:25.255Z,88.70
2022-10-19T11:45:06.772Z,88.82
2022-10-19T11:47:51.923Z,88.52
2022-10-19T11:50:32.313Z,88.67
2022-10-19T11:53:08.361Z,88.38
2022-10-19T11:55:45.702Z,88.51
2022-10-19T11:58:35.786Z,88.59
2022-10-19T12:01:13.734Z,88.58
2022-10-19T12:04:13.400Z,88.30
2022-10-19T12:06:49.869Z,88.25
2022-10-19T12:09:31.219Z,88.42
2022-10-19T12:12:19.774Z,88.37
2022-10-19T12:14:52.766Z,88.48
2022-10-19T12:17:26.701Z,88.32
2022-10-19T12:19:57.530Z,88.33
2022-10-19T12:22:29.781Z,88.37
2022-10-19T12:25:01.766Z,88.20
2022-10-19T12:27:35.353Z,88.22
2022-10-19T12:30:08.683Z,88.18
2022-10-19T12:32:45.012Z,88.20
2022-10-19T12:35:25.998Z,87.93
2022-10-19T12:37:59.500Z,88.10
2022-10-19T12:40:36.247Z,88.18
2022-10-19T12:43:13.361Z,88.06
2022-10-19T12:45:49.562Z,88.01
2022-10-19T12:48:25.470Z,87.74
2022-10-19T12:51:05.620Z,87.74
2022-10-19T12:53:39.347Z,87.79
2022-10-19T12:56:12.325Z,87.79
2022-10-19T12:58:48.261Z,87.74
2022-10-19T13:01:22.369Z,87.88
2022-10-19T13:03:54.885Z,87.74
2022-10-19T13:06:34.515Z,87.82
2022-10-19T13:09:05.497Z,87.81
2022-10-19T13:14:08.801Z,87.53
2022-10-19T13:16:56.971Z,87.68
2022-10-19T13:19:25.562Z,87.69
2022-10-19T13:22:26.718Z,87.29
2022-10-19T13:25:26.966Z,87.43
2022-10-19T13:27:57.145Z,87.42
2022-10-19T13:31:08.194Z,87.28
2022-10-19T13:33:47.688Z,87.19
2022-10-19T13:36:16.272Z,87.11
2022-10-19T13:38:46.496Z,87.08
2022-10-19T13:41:21.927Z,87.27
2022-10-19T13:44:00.722Z,87.07
2022-10-19T13:46:48.749Z,86.79
2022-10-19T13:49:50.720Z,87.00
2022-10-19T13:52:42.634Z,87.01
2022-10-19T13:55:31.908Z,86.96
2022-10-19T13:58:22.299Z,86.86
2022-10-19T14:01:06.416Z,86.91
2022-10-19T14:03:55.030Z,86.86
2022-10-19T14:06:28.818Z,86.80
2022-10-19T14:09:32.716Z,86.74
2022-10-19T14:12:08.065Z,86.84
2022-10-19T14:14:44.244Z,86.82
2022-10-19T14:19:49.121Z,86.62
2022-10-19T14:22:26.218Z,86.43
2022-10-19T14:25:01.346Z,86.60
2022-10-19T14:27:31.427Z,86.63
2022-10-19T14:29:59.483Z,86.35
2022-10-19T14:32:29.410Z,86.62
2022-10-19T14:37:34.229Z,86.43
2022-10-19T14:40:05.124Z,86.44
2022-10-19T14:42:44.636Z,86.22
2022-10-19T14:45:19.837Z,86.22
2022-10-19T14:48:00.117Z,86.17
2022-10-19T14:50:35.756Z,86.14
2022-10-19T14:53:20.222Z,86.21
2022-10-19T14:55:49.551Z,85.95
2022-10-19T14:58:20.944Z,86.35
2022-10-19T15:00:51.654Z,85.88
2022-10-19T15:03:24.678Z,85.96
2022-10-19T15:05:57.492Z,85.83
2022-10-19T15:08:34.564Z,85.90
2022-10-19T15:11:02.547Z,86.00
2022-10-19T15:13:34.493Z,86.04
2022-10-19T15:16:03.079Z,86.02
2022-10-19T15:18:48.793Z,86.24
2022-10-19T15:21:20.860Z,86.27
2022-10-19T15:23:51.455Z,85.71
2022-10-19T15:26:21.592Z,85.96
2022-10-19T15:28:50.335Z,85.60
2022-10-19T15:31:20.428Z,86.08
2022-10-19T15:33:51.434Z,85.61
2022-10-19T15:36:20.688Z,85.89
2022-10-19T15:39:11.386Z,85.42
2022-10-19T15:41:47.737Z,85.42
2022-10-19T15:44:33.165Z,85.63
2022-10-19T15:47:28.296Z,85.50
2022-10-19T15:49:58.972Z,85.78
2022-10-19T15:52:27.954Z,85.38
2022-10-19T15:54:59.124Z,85.69
2022-10-19T15:57:30.415Z,85.20
2022-10-19T16:00:00.303Z,85.21
2022-10-19T16:02:28.387Z,85.21
2022-10-19T16:04:56.703Z,85.58
2022-10-19T16:07:28.275Z,85.21
2022-10-19T16:09:58.568Z,85.43
2022-10-19T16:12:27.301Z,85.73
2022-10-19T16:14:55.597Z,85.25
2022-10-19T16:17:23.836Z,85.50
2022-10-19T16:19:52.105Z,85.09
2022-10-19T16:22:20.192Z,85.34
2022-10-19T16:24:51.057Z,85.12
2022-10-19T16:27:25.207Z,85.28
2022-10-19T16:29:53.047Z,85.36
2022-10-19T16:32:25.945Z,85.43
2022-10-19T16:34:53.999Z,85.05
2022-10-19T16:37:21.774Z,85.31
2022-10-19T16:39:49.629Z,85.35
2022-10-19T16:42:18.163Z,85.18
2022-10-19T16:44:47.256Z,85.20
2022-10-19T16:47:16.958Z,85.13
2022-10-19T16:49:44.909Z,85.18
2022-10-19T16:52:14.324Z,85.22
2022-10-19T16:54:42.193Z,85.02
2022-10-19T16:57:10.224Z,85.24
2022-10-19T16:59:38.040Z,85.03
2022-10-19T17:02:07.244Z,84.88
2022-10-19T17:04:35.109Z,85.17
2022-10-19T17:07:03.195Z,84.99
2022-10-19T17:09:41.373Z,85.01
2022-10-19T17:12:10.800Z,84.93
2022-10-19T17:14:40.803Z,85.03
2022-10-19T17:17:11.402Z,85.24
2022-10-19T17:19:39.457Z,84.87
2022-10-19T17:22:07.489Z,84.71
2022-10-19T17:24:37.298Z,84.98
2022-10-19T17:27:05.065Z,84.98
2022-10-19T17:29:33.019Z,84.87
2022-10-19T17:32:00.961Z,84.92
2022-10-19T17:34:30.147Z,84.90
2022-10-19T17:36:58.003Z,84.85
2022-10-19T17:39:29.004Z,84.91
2022-10-19T17:42:02.061Z,84.61
2022-10-19T17:44:31.479Z,84.74
2022-10-19T17:47:00.750Z,85.05
2022-10-19T17:49:30.441Z,84.89
2022-10-19T17:51:58.866Z,85.14
2022-10-19T17:54:27.115Z,84.59
2022-10-19T17:56:54.898Z,84.73
2022-10-19T17:59:34.848Z,84.71
2022-10-19T18:02:03.791Z,84.73
2022-10-19T18:04:33.042Z,84.52
2022-10-19T18:07:00.964Z,85.12
2022-10-19T18:09:28.801Z,84.57
2022-10-19T18:11:56.645Z,84.51
2022-10-19T18:14:24.511Z,84.97
2022-10-19T18:16:52.367Z,84.84
2022-10-19T18:19:20.240Z,84.39
2022-10-19T18:21:50.009Z,84.54
2022-10-19T18:24:20.244Z,84.81
2022-10-19T18:26:49.122Z,84.70
2022-10-19T18:29:20.390Z,84.77
2022-10-19T18:31:51.475Z,84.85
2022-10-19T18:34:21.055Z,84.79
2022-10-19T18:36:50.381Z,84.75
2022-10-19T18:39:19.114Z,84.85
2022-10-19T18:41:48.220Z,84.42
2022-10-19T18:44:16.250Z,84.68
2022-10-19T18:46:44.840Z,84.72
2022-10-19T18:49:13.503Z,85.04
2022-10-19T18:51:41.395Z,84.67
2022-10-19T18:54:11.955Z,84.40
2022-10-19T18:56:39.963Z,84.42
2022-10-19T18:59:07.992Z,84.59
2022-10-19T19:01:36.118Z,84.93
2022-10-19T19:04:09.330Z,84.25
2022-10-19T19:06:39.371Z,84.66
2022-10-19T19:09:09.642Z,84.90
2022-10-19T19:11:41.060Z,84.39
2022-10-19T19:14:13.274Z,85.01
2022-10-19T19:16:42.440Z,84.57
2022-10-19T19:19:12.818Z,85.07
2022-10-19T19:21:45.148Z,84.20
2022-10-19T19:24:14.757Z,84.24
2022-10-19T19:26:49.459Z,84.85
2022-10-19T19:29:17.961Z,84.93
2022-10-19T19:31:45.766Z,84.74
2022-10-19T19:34:13.957Z,84.68
2022-10-19T19:36:47.406Z,84.53
2022-10-19T19:39:17.219Z,84.63
2022-10-19T19:41:46.579Z,84.43
2022-10-19T19:44:14.644Z,84.33
2022-10-19T19:46:42.798Z,84.36
2022-10-19T19:49:10.734Z,84.36
2022-10-19T19:51:38.858Z,84.27
2022-10-19T19:54:07.494Z,84.05
2022-10-19T19:56:37.185Z,84.27
2022-10-19T19:59:06.399Z,84.37
2022-10-19T20:01:34.380Z,84.44
2022-10-19T20:06:37.397Z,84.07
2022-10-19T20:09:05.894Z,84.83
2022-10-19T20:11:37.140Z,84.19
2022-10-19T20:14:08.987Z,84.54
2022-10-19T20:16:37.066Z,84.46
2022-10-19T20:19:07.336Z,84.39
2022-10-19T20:21:35.298Z,84.26
2022-10-19T20:24:03.203Z,84.54
2022-10-19T20:26:31.943Z,84.28
2022-10-19T20:29:00.141Z,84.33
2022-10-19T20:31:29.443Z,84.37
2022-10-19T20:33:57.243Z,84.35
2022-10-19T20:36:26.835Z,84.84
2022-10-19T20:38:56.754Z,84.07
2022-10-19T20:41:27.402Z,84.80
2022-10-19T20:43:56.240Z,84.75
2022-10-19T20:46:25.756Z,84.20
2022-10-19T20:48:56.790Z,84.29
2022-10-19T20:51:30.756Z,84.33
2022-10-19T20:54:00.918Z,84.41
2022-10-19T20:56:30.983Z,84.12
2022-10-19T20:59:00.380Z,84.32
2022-10-19T21:01:30.321Z,84.15
2022-10-19T21:04:03.580Z,84.10
2022-10-19T21:06:33.372Z,84.50
2022-10-19T21:09:01.654Z,84.57
2022-10-19T21:11:31.474Z,84.54
2022-10-19T21:14:00.832Z,84.90
2022-10-19T21:16:33.497Z,84.19
2022-10-19T21:19:03.234Z,84.45
2022-10-19T21:21:33.208Z,84.68
2022-10-19T21:24:04.431Z,84.19
2022-10-19T21:26:34.748Z,84.16
2022-10-19T21:29:03.136Z,84.55
2022-10-19T21:31:31.167Z,84.10
2022-10-19T21:33:59.019Z,84.50
2022-10-19T21:36:28.154Z,84.07
2022-10-19T21:38:57.215Z,84.41
2022-10-19T21:41:26.410Z,84.19
2022-10-19T21:43:54.660Z,84.54
2022-10-19T21:46:23.783Z,83.88
2022-10-19T21:48:52.374Z,83.93
2022-10-19T21:51:31.459Z,84.90
2022-10-19T21:54:01.445Z,84.54
2022-10-19T21:56:29.742Z,84.54
2022-10-19T21:58:57.917Z,84.18
2022-10-19T22:01:27.994Z,84.73
2022-10-19T22:06:37.484Z,84.79
2022-10-19T22:09:06.972Z,84.18
2022-10-19T22:11:35.227Z,84.48
2022-10-19T22:14:04.573Z,84.29
2022-10-19T22:16:33.591Z,84.70
2022-10-19T22:19:01.472Z,84.44
2022-10-19T22:21:31.458Z,84.47
2022-10-19T22:24:04.042Z,84.55
2022-10-19T22:26:34.520Z,84.51
2022-10-19T22:29:04.766Z,83.53
2022-10-19T22:31:33.590Z,84.25
2022-10-19T22:34:01.796Z,83.91
2022-10-19T22:36:29.632Z,83.99
2022-10-19T22:38:57.459Z,84.27
2022-10-19T22:41:28.270Z,84.44
2022-10-19T22:43:56.059Z,84.48
2022-10-19T22:46:23.961Z,84.08
2022-10-19T22:48:52.004Z,84.45
2022-10-19T22:51:19.862Z,84.98
2022-10-19T22:53:47.766Z,84.35
2022-10-19T22:56:15.484Z,83.91
2022-10-19T22:58:44.732Z,83.85
2022-10-19T23:01:15.032Z,84.14
2022-10-19T23:03:43.909Z,84.33
2022-10-19T23:06:14.477Z,84.85
2022-10-19T23:08:43.268Z,84.14
2022-10-19T23:11:11.907Z,83.94
2022-10-19T23:13:40.216Z,84.00
2022-10-19T23:16:10.697Z,84.67
2022-10-19T23:18:40.872Z,84.49
2022-10-19T23:21:11.688Z,84.23
2022-10-19T23:23:40.210Z,84.12
2022-10-19T23:26:10.589Z,84.34
2022-10-19T23:28:40.960Z,84.04
2022-10-19T23:31:12.008Z,84.62
2022-10-19T23:33:40.731Z,84.49
2022-10-19T23:36:10.851Z,84.44
2022-10-19T23:38:38.998Z,84.05
2022-10-19T23:41:07.579Z,84.28
2022-10-19T23:46:04.846Z,84.59
2022-10-19T23:48:35.396Z,84.48
2022-10-19T23:51:05.376Z,83.92
2022-10-19T23:53:38.407Z,84.08
2022-10-19T23:56:12.992Z,84.00
2022-10-19T23:58:42.047Z,84.29
